createdAt,value
2023-04-20T00:00:31.504Z,2.60
2023-04-20T00:02:59.595Z,2.43
2023-04-20T00:05:27.515Z,2.47
2023-04-20T00:07:55.825Z,2.40
2023-04-20T00:10:24.940Z,1.97
2023-04-20T00:12:52.743Z,2.23
2023-04-20T00:15:20.542Z,2.23
2023-04-20T00:17:48.676Z,2.43
2023-04-20T00:20:16.508Z,2.80
2023-04-20T00:22:44.288Z,2.00
2023-04-20T00:25:12.026Z,2.43
2023-04-20T00:27:41.133Z,2.87
2023-04-20T00:30:11.032Z,3.33
2023-04-20T00:32:38.819Z,2.70
2023-04-20T00:35:07.445Z,2.67
2023-04-20T00:37:35.106Z,2.30
2023-04-20T00:40:02.793Z,2.90
2023-04-20T00:42:30.608Z,2.80
2023-04-20T00:44:59.673Z,2.50
2023-04-20T00:47:27.431Z,2.97
2023-04-20T00:49:55.812Z,2.80
2023-04-20T00:52:23.619Z,2.80
2023-04-20T00:54:51.418Z,3.17
2023-04-20T00:57:24.137Z,2.57
2023-04-20T00:59:52.338Z,3.03
2023-04-20T01:02:21.691Z,2.30
2023-04-20T01:04:49.453Z,3.07
2023-04-20T01:07:17.356Z,2.90
2023-04-20T01:09:45.004Z,2.93
2023-04-20T01:12:12.732Z,2.30
2023-04-20T01:14:40.595Z,2.23
2023-04-20T01:17:08.458Z,2.30
2023-04-20T01:19:37.504Z,2.00
2023-04-20T01:22:06.104Z,2.20
2023-04-20T01:24:35.270Z,2.40
2023-04-20T01:27:02.963Z,1.90
2023-04-20T01:29:30.931Z,2.83
2023-04-20T01:31:58.643Z,2.43
2023-04-20T01:34:26.475Z,2.70
2023-04-20T01:36:54.231Z,2.80
2023-04-20T01:39:21.988Z,2.83
2023-04-20T01:41:51.508Z,2.20
2023-04-20T01:44:19.294Z,2.53
2023-04-20T01:46:46.973Z,2.23
2023-04-20T01:49:14.775Z,2.50
2023-04-20T01:51:42.635Z,2.57
2023-04-20T01:54:10.409Z,3.00
2023-04-20T01:56:38.153Z,2.63
2023-04-20T01:59:07.205Z,2.90
2023-04-20T02:01:35.226Z,2.57
2023-04-20T02:04:03.038Z,3.20
2023-04-20T02:06:31.315Z,2.27
2023-04-20T02:08:59.175Z,2.53
2023-04-20T02:11:26.939Z,2.97
2023-04-20T02:13:54.698Z,2.90
2023-04-20T02:16:23.902Z,2.70
2023-04-20T02:18:51.801Z,2.97
2023-04-20T02:21:20.064Z,1.77
2023-04-20T02:23:47.787Z,2.07
2023-04-20T02:26:16.808Z,2.90
2023-04-20T02:28:44.508Z,2.10
2023-04-20T02:31:12.254Z,2.30
2023-04-20T02:33:41.537Z,2.33
2023-04-20T02:36:09.931Z,2.23
2023-04-20T02:38:38.075Z,2.33
2023-04-20T02:41:06.255Z,2.10
2023-04-20T02:43:36.218Z,2.30
2023-04-20T02:46:04.073Z,2.40
2023-04-20T02:48:31.807Z,2.33
2023-04-20T02:51:01.233Z,2.77
2023-04-20T02:53:28.978Z,2.23
2023-04-20T02:55:56.693Z,3.07
2023-04-20T02:58:24.891Z,2.23
2023-04-20T03:00:53.106Z,2.63
2023-04-20T03:03:21.720Z,2.80
2023-04-20T03:05:49.976Z,2.50
2023-04-20T03:08:19.084Z,2.77
2023-04-20T03:10:46.839Z,2.50
2023-04-20T03:13:14.522Z,2.50
2023-04-20T03:15:42.357Z,2.63
2023-04-20T03:18:10.106Z,3.17
2023-04-20T03:20:37.879Z,2.97
2023-04-20T03:23:05.646Z,3.33
2023-04-20T03:25:34.773Z,3.03
2023-04-20T03:28:02.500Z,2.73
2023-04-20T03:30:30.453Z,2.90
2023-04-20T03:32:58.226Z,3.20
2023-04-20T03:35:25.977Z,3.57
2023-04-20T03:37:53.681Z,3.43
2023-04-20T03:40:21.616Z,3.13
2023-04-20T03:42:50.735Z,3.47
2023-04-20T03:45:18.448Z,3.30
2023-04-20T03:47:46.221Z,2.67
2023-04-20T03:50:13.911Z,3.03
2023-04-20T03:52:41.799Z,2.70
2023-04-20T03:55:10.601Z,2.80
2023-04-20T03:57:38.841Z,2.70
2023-04-20T04:00:10.792Z,2.50
2023-04-20T04:02:38.610Z,2.83
2023-04-20T04:05:07.313Z,2.63
2023-04-20T04:07:35.100Z,3.03
2023-04-20T04:10:04.969Z,2.67
2023-04-20T04:12:32.824Z,3.00
2023-04-20T04:15:00.566Z,3.03
2023-04-20T04:17:29.627Z,3.37
2023-04-20T04:19:57.482Z,2.17
2023-04-20T04:22:25.417Z,2.93
2023-04-20T04:24:54.434Z,2.77
2023-04-20T04:27:22.433Z,3.00
2023-04-20T04:29:50.189Z,3.03
2023-04-20T04:32:18.174Z,3.00
2023-04-20T04:34:48.292Z,3.23
2023-04-20T04:37:15.982Z,3.20
2023-04-20T04:39:43.675Z,3.73
2023-04-20T04:42:11.456Z,3.07
2023-04-20T04:44:40.082Z,2.77
2023-04-20T04:47:09.614Z,3.13
2023-04-20T04:49:37.369Z,3.93
2023-04-20T04:52:06.589Z,4.13
2023-04-20T04:54:34.308Z,4.13
2023-04-20T04:57:02.088Z,3.67
2023-04-20T04:59:29.825Z,3.60
2023-04-20T05:01:57.643Z,3.07
2023-04-20T05:04:25.697Z,2.73
2023-04-20T05:06:53.493Z,3.63
2023-04-20T05:09:22.533Z,2.33
2023-04-20T05:11:50.315Z,2.93
2023-04-20T05:14:18.111Z,2.50
2023-04-20T05:16:45.897Z,3.77
2023-04-20T05:19:13.655Z,3.60
2023-04-20T05:21:41.495Z,4.33
2023-04-20T05:24:09.398Z,2.73
2023-04-20T05:26:38.551Z,3.23
2023-04-20T05:29:06.294Z,2.90
2023-04-20T05:31:34.258Z,4.40
2023-04-20T05:34:02.920Z,3.10
2023-04-20T05:36:30.957Z,3.60
2023-04-20T05:38:58.709Z,4.20
2023-04-20T05:41:27.728Z,3.30
2023-04-20T05:43:57.059Z,3.03
2023-04-20T05:46:24.805Z,3.50
2023-04-20T05:48:52.464Z,3.00
2023-04-20T05:51:20.417Z,3.77
2023-04-20T05:53:48.151Z,3.40
2023-04-20T05:56:15.932Z,4.10
2023-04-20T05:58:44.216Z,3.87
2023-04-20T06:01:13.235Z,3.70
2023-04-20T06:03:41.163Z,4.07
2023-04-20T06:06:09.192Z,3.17
2023-04-20T06:08:36.931Z,3.80
2023-04-20T06:11:04.734Z,3.67
2023-04-20T06:13:32.415Z,4.73
2023-04-20T06:16:00.207Z,3.60
2023-04-20T06:18:29.361Z,3.80
2023-04-20T06:20:57.074Z,3.70
2023-04-20T06:23:24.826Z,4.40
2023-04-20T06:25:52.600Z,4.57
2023-04-20T06:28:20.366Z,3.87
2023-04-20T06:30:48.044Z,4.53
2023-04-20T06:33:17.337Z,4.33
2023-04-20T06:35:46.475Z,3.63
2023-04-20T06:38:14.227Z,3.87
2023-04-20T06:40:41.919Z,3.53
2023-04-20T06:43:09.655Z,3.60
2023-04-20T06:45:37.296Z,3.77
2023-04-20T06:48:05.291Z,4.23
2023-04-20T06:50:33.069Z,4.50
2023-04-20T06:53:03.964Z,3.60
2023-04-20T06:55:31.989Z,3.73
2023-04-20T06:57:59.646Z,3.60
2023-04-20T07:00:28.354Z,4.33
2023-04-20T07:02:56.193Z,3.43
2023-04-20T07:05:24.520Z,4.67
2023-04-20T07:07:52.290Z,5.17
2023-04-20T07:10:21.716Z,5.13
2023-04-20T07:12:49.496Z,4.93
2023-04-20T07:15:17.221Z,3.97
2023-04-20T07:17:45.010Z,3.63
2023-04-20T07:20:13.143Z,3.90
2023-04-20T07:22:41.316Z,4.37
2023-04-20T07:25:10.543Z,5.37
2023-04-20T07:27:41.068Z,5.27
2023-04-20T07:30:10.726Z,5.70
2023-04-20T07:32:39.127Z,5.63
2023-04-20T07:35:07.746Z,5.43
2023-04-20T07:37:35.993Z,4.50
2023-04-20T07:40:06.118Z,4.70
2023-04-20T07:42:34.371Z,3.80
2023-04-20T07:45:04.196Z,4.90
2023-04-20T07:47:32.062Z,4.83
2023-04-20T07:49:59.742Z,5.57
2023-04-20T07:52:27.543Z,4.67
2023-04-20T07:54:57.873Z,5.30
2023-04-20T07:57:25.593Z,3.73
2023-04-20T07:59:53.343Z,4.53
2023-04-20T08:02:22.687Z,4.73
2023-04-20T08:04:50.783Z,4.77
2023-04-20T08:07:18.776Z,4.60
2023-04-20T08:09:46.555Z,5.73
2023-04-20T08:12:14.274Z,5.50
2023-04-20T08:14:42.357Z,5.10
2023-04-20T08:17:10.057Z,5.40
2023-04-20T08:19:39.999Z,4.40
2023-04-20T08:22:09.354Z,3.93
2023-04-20T08:24:37.022Z,5.00
2023-04-20T08:27:04.760Z,5.60
2023-04-20T08:29:32.449Z,4.23
2023-04-20T08:32:00.210Z,3.73
2023-04-20T08:34:27.983Z,3.90
2023-04-20T08:36:57.112Z,3.83
2023-04-20T08:39:24.894Z,4.47
2023-04-20T08:41:53.968Z,3.23
2023-04-20T08:44:21.981Z,3.80
2023-04-20T08:46:50.395Z,3.87
2023-04-20T08:49:19.210Z,5.50
2023-04-20T08:51:47.684Z,3.73
2023-04-20T08:54:17.380Z,3.90
2023-04-20T08:56:46.557Z,5.83
2023-04-20T08:59:15.018Z,4.30
2023-04-20T09:01:43.322Z,4.03
2023-04-20T09:04:19.159Z,3.67
2023-04-20T09:06:47.788Z,4.37
2023-04-20T09:09:17.026Z,4.37
2023-04-20T09:11:45.015Z,3.00
2023-04-20T09:14:14.802Z,3.97
2023-04-20T09:16:50.695Z,4.53
2023-04-20T09:19:23.156Z,4.40
2023-04-20T09:21:52.355Z,3.83
2023-04-20T09:24:22.736Z,4.17
2023-04-20T09:26:50.520Z,4.03
2023-04-20T09:29:18.810Z,4.30
2023-04-20T09:31:46.667Z,3.90
2023-04-20T09:34:14.703Z,3.43
2023-04-20T09:36:43.795Z,4.53
2023-04-20T09:39:12.907Z,4.17
2023-04-20T09:41:43.153Z,4.20
2023-04-20T09:44:11.894Z,4.40
2023-04-20T09:46:40.602Z,3.93
2023-04-20T09:49:09.570Z,4.30
2023-04-20T09:51:38.513Z,3.57
2023-04-20T09:54:07.571Z,4.93
2023-04-20T09:56:36.240Z,5.10
2023-04-20T09:59:05.304Z,3.90
2023-04-20T10:01:34.835Z,4.57
2023-04-20T10:04:04.035Z,4.17
2023-04-20T10:06:34.334Z,3.87
2023-04-20T10:09:05.920Z,4.80
2023-04-20T10:11:49.103Z,4.73
2023-04-20T10:14:24.117Z,4.43
2023-04-20T10:17:01.017Z,4.00
2023-04-20T10:19:38.639Z,4.60
2023-04-20T10:22:07.174Z,3.63
2023-04-20T10:24:35.803Z,4.80
2023-04-20T10:27:04.200Z,4.23
2023-04-20T10:29:34.516Z,3.77
2023-04-20T10:32:04.095Z,4.50
2023-04-20T10:34:32.513Z,4.93
2023-04-20T10:37:10.312Z,4.27
2023-04-20T10:39:38.802Z,3.57
2023-04-20T10:42:06.536Z,4.90
2023-04-20T10:44:35.596Z,4.00
2023-04-20T10:47:03.366Z,5.50
2023-04-20T10:49:32.276Z,4.60
2023-04-20T10:52:00.107Z,4.00
2023-04-20T10:54:28.975Z,4.67
2023-04-20T10:56:57.118Z,3.40
2023-04-20T10:59:25.944Z,4.83
2023-04-20T11:01:55.759Z,3.80
2023-04-20T11:04:31.112Z,3.67
2023-04-20T11:07:05.969Z,3.20
2023-04-20T11:09:34.765Z,4.30
2023-04-20T11:12:04.304Z,3.30
2023-04-20T11:14:32.400Z,4.30
2023-04-20T11:17:01.878Z,4.57
2023-04-20T11:19:31.133Z,4.27
2023-04-20T11:21:59.227Z,3.93
2023-04-20T11:24:28.198Z,3.37
2023-04-20T11:26:56.792Z,3.67
2023-04-20T11:29:32.049Z,3.70
2023-04-20T11:32:02.668Z,4.37
2023-04-20T11:34:30.477Z,4.40
2023-04-20T11:36:59.564Z,4.40
2023-04-20T11:39:27.630Z,3.90
2023-04-20T11:41:56.587Z,5.07
2023-04-20T11:44:25.239Z,4.60
2023-04-20T11:46:54.428Z,4.10
2023-04-20T11:49:23.800Z,4.13
2023-04-20T11:51:52.166Z,4.50
2023-04-20T11:54:20.225Z,4.00
2023-04-20T11:56:47.991Z,4.00
2023-04-20T11:59:16.974Z,3.93
2023-04-20T12:01:44.947Z,4.23
2023-04-20T12:04:12.979Z,3.73
2023-04-20T12:06:42.441Z,3.97
2023-04-20T12:09:10.442Z,4.80
2023-04-20T12:11:38.237Z,4.03
2023-04-20T12:14:06.006Z,3.87
2023-04-20T12:16:33.823Z,3.90
2023-04-20T12:19:01.618Z,4.57
2023-04-20T12:21:29.372Z,4.60
2023-04-20T12:23:58.683Z,3.97
2023-04-20T12:26:36.917Z,3.93
2023-04-20T12:29:05.962Z,4.20
2023-04-20T12:31:33.744Z,4.33
2023-04-20T12:34:01.445Z,3.60
2023-04-20T12:36:29.323Z,3.87
2023-04-20T12:38:58.403Z,4.57
2023-04-20T12:41:26.081Z,3.23
2023-04-20T12:43:53.884Z,4.40
2023-04-20T12:46:21.615Z,4.17
2023-04-20T12:48:49.347Z,3.43
2023-04-20T12:51:17.129Z,4.70
2023-04-20T12:55:37.845Z,3.73
2023-04-20T12:58:06.101Z,4.67
2023-04-20T13:00:33.879Z,4.20
2023-04-20T13:03:01.956Z,4.60
2023-04-20T13:05:30.264Z,5.00
2023-04-20T13:07:58.026Z,4.43
2023-04-20T13:10:25.992Z,4.50
2023-04-20T13:12:55.998Z,3.93
2023-04-20T13:15:37.553Z,4.37
2023-04-20T13:18:07.026Z,4.83
2023-04-20T13:20:34.898Z,5.03
2023-04-20T13:23:03.834Z,4.63
2023-04-20T13:25:33.449Z,4.83
2023-04-20T13:28:03.354Z,5.23
2023-04-20T13:30:31.096Z,4.67
2023-04-20T13:32:58.880Z,4.97
2023-04-20T13:35:26.928Z,4.80
2023-04-20T13:37:54.751Z,4.20
2023-04-20T13:40:22.744Z,4.60
2023-04-20T13:42:50.537Z,4.50
2023-04-20T13:45:19.643Z,4.23
2023-04-20T13:47:47.522Z,4.13
2023-04-20T13:50:15.294Z,4.83
2023-04-20T13:52:43.047Z,4.30
2023-04-20T13:55:11.782Z,4.40
2023-04-20T13:57:39.572Z,4.60
2023-04-20T14:00:08.786Z,5.37
2023-04-20T14:02:37.873Z,4.43
2023-04-20T14:05:06.550Z,5.07
2023-04-20T14:07:34.405Z,4.97
2023-04-20T14:10:02.174Z,4.43
2023-04-20T14:12:29.952Z,4.43
2023-04-20T14:14:58.995Z,4.33
2023-04-20T14:17:27.199Z,5.10
2023-04-20T14:19:56.367Z,4.53
2023-04-20T14:22:24.070Z,3.90
2023-04-20T14:24:51.715Z,4.70
2023-04-20T14:27:19.457Z,4.47
2023-04-20T14:29:47.268Z,4.60
2023-04-20T14:32:15.003Z,4.57
2023-04-20T14:34:42.670Z,4.20
2023-04-20T14:37:11.790Z,3.97
2023-04-20T14:39:39.570Z,4.40
2023-04-20T14:42:07.717Z,4.40
2023-04-20T14:44:35.529Z,3.87
2023-04-20T14:47:03.375Z,4.53
2023-04-20T14:49:31.089Z,3.77
2023-04-20T14:51:58.808Z,3.93
2023-04-20T14:54:27.940Z,4.50
2023-04-20T14:56:55.858Z,3.80
2023-04-20T14:59:24.559Z,3.23
2023-04-20T15:02:01.756Z,4.80
2023-04-20T15:04:31.825Z,4.10
2023-04-20T15:06:59.735Z,4.57
2023-04-20T15:09:28.854Z,4.33
2023-04-20T15:11:56.924Z,4.80
2023-04-20T15:14:24.695Z,4.00
2023-04-20T15:16:53.385Z,3.90
2023-04-20T15:19:21.495Z,4.30
2023-04-20T15:21:49.268Z,4.43
2023-04-20T15:24:17.314Z,4.60
2023-04-20T15:26:46.538Z,4.17
2023-04-20T15:29:14.276Z,4.57
2023-04-20T15:31:45.389Z,4.17
2023-04-20T15:34:15.424Z,4.37
2023-04-20T15:36:43.642Z,3.83
2023-04-20T15:39:11.576Z,3.27
2023-04-20T15:41:39.429Z,4.40
2023-04-20T15:44:08.548Z,4.23
2023-04-20T15:46:37.121Z,4.00
2023-04-20T15:49:04.991Z,4.60
2023-04-20T15:51:32.713Z,5.00
2023-04-20T15:54:00.508Z,4.10
2023-04-20T15:56:28.209Z,5.37
2023-04-20T15:58:55.964Z,4.27
2023-04-20T16:01:25.151Z,4.40
2023-04-20T16:03:52.952Z,4.87
2023-04-20T16:06:20.949Z,4.07
2023-04-20T16:08:53.173Z,4.40
2023-04-20T16:11:21.806Z,5.03
2023-04-20T16:13:49.624Z,4.03
2023-04-20T16:16:17.449Z,5.10
2023-04-20T16:18:46.562Z,4.30
2023-04-20T16:21:15.320Z,4.60
2023-04-20T16:23:42.992Z,4.30
2023-04-20T16:26:10.778Z,4.50
2023-04-20T16:28:38.699Z,4.17
2023-04-20T16:31:06.731Z,3.87
2023-04-20T16:33:35.677Z,4.67
2023-04-20T16:36:05.151Z,4.30
2023-04-20T16:38:32.940Z,4.80
2023-04-20T16:41:00.654Z,4.10
2023-04-20T16:43:28.401Z,4.10
2023-04-20T16:45:56.148Z,3.80
2023-04-20T16:48:23.896Z,4.40
2023-04-20T16:50:51.861Z,5.07
2023-04-20T16:53:21.276Z,4.40
2023-04-20T16:55:48.987Z,4.07
2023-04-20T16:58:16.680Z,4.70
2023-04-20T17:00:44.402Z,4.90
2023-04-20T17:03:13.694Z,5.40
2023-04-20T17:05:42.310Z,5.13
2023-04-20T17:08:10.227Z,4.90
2023-04-20T17:10:39.416Z,4.30
2023-04-20T17:13:07.157Z,3.97
2023-04-20T17:15:34.951Z,7.90
2023-04-20T17:18:02.758Z,6.90
2023-04-20T17:20:30.622Z,7.50
2023-04-20T17:22:58.284Z,7.03
2023-04-20T17:25:26.050Z,7.77
2023-04-20T17:27:55.178Z,6.87
2023-04-20T17:30:22.860Z,6.80
2023-04-20T17:32:50.581Z,8.00
2023-04-20T17:35:18.325Z,6.57
2023-04-20T17:37:46.003Z,8.67
2023-04-20T17:40:13.906Z,8.57
2023-04-20T17:42:41.690Z,7.13
2023-04-20T17:45:11.703Z,7.70
2023-04-20T17:47:39.531Z,6.90
2023-04-20T17:50:08.695Z,8.87
2023-04-20T17:52:36.546Z,6.10
2023-04-20T17:55:04.601Z,7.77
2023-04-20T17:57:32.454Z,7.70
2023-04-20T18:00:00.202Z,8.17
2023-04-20T18:02:29.471Z,7.53
2023-04-20T18:04:59.663Z,8.20
2023-04-20T18:07:27.673Z,7.27
2023-04-20T18:09:55.550Z,7.77
2023-04-20T18:12:23.346Z,6.93
2023-04-20T18:14:51.044Z,8.23
2023-04-20T18:17:18.750Z,7.90
2023-04-20T18:19:48.147Z,8.17
2023-04-20T18:22:16.578Z,7.80
2023-04-20T18:24:44.373Z,7.73
2023-04-20T18:27:12.296Z,7.83
2023-04-20T18:29:39.949Z,8.93
2023-04-20T18:32:07.889Z,8.70
2023-04-20T18:34:36.759Z,8.03
2023-04-20T18:37:05.947Z,8.87
2023-04-20T18:39:33.597Z,8.63
2023-04-20T18:42:02.173Z,8.93
2023-04-20T18:44:30.251Z,8.87
2023-04-20T18:46:58.107Z,8.47
2023-04-20T18:49:25.891Z,9.00
2023-04-20T18:51:53.772Z,9.80
2023-04-20T18:54:22.847Z,9.17
2023-04-20T18:56:50.583Z,9.17
2023-04-20T18:59:18.591Z,9.30
2023-04-20T19:01:46.298Z,10.20
2023-04-20T19:04:14.194Z,7.57
2023-04-20T19:06:41.944Z,9.03
2023-04-20T19:09:09.666Z,8.47
2023-04-20T19:11:38.711Z,10.00
2023-04-20T19:14:06.524Z,9.10
2023-04-20T19:16:34.968Z,9.17
2023-04-20T19:19:03.821Z,10.10
2023-04-20T19:21:31.978Z,8.97
2023-04-20T19:23:59.784Z,9.40
2023-04-20T19:26:27.720Z,10.00
2023-04-20T19:28:58.184Z,9.70
2023-04-20T19:31:26.373Z,10.87
2023-04-20T19:33:55.928Z,7.07
2023-04-20T19:36:24.947Z,7.60
2023-04-20T19:38:52.693Z,7.63
2023-04-20T19:41:20.343Z,8.33
2023-04-20T19:43:48.012Z,8.57
2023-04-20T19:46:17.299Z,7.30
2023-04-20T19:48:45.359Z,7.67
2023-04-20T19:51:13.018Z,8.00
2023-04-20T19:53:40.956Z,8.17
2023-04-20T19:56:08.720Z,8.73
2023-04-20T19:58:36.545Z,8.10
2023-04-20T20:01:04.387Z,8.13
2023-04-20T20:03:33.618Z,10.20
2023-04-20T20:06:01.781Z,9.87
2023-04-20T20:08:29.925Z,7.80
2023-04-20T20:10:57.787Z,7.80
2023-04-20T20:13:26.348Z,7.67
2023-04-20T20:15:54.307Z,7.27
2023-04-20T20:18:22.175Z,8.70
2023-04-20T20:20:51.546Z,8.33
2023-04-20T20:23:19.315Z,7.33
2023-04-20T20:25:47.041Z,8.37
2023-04-20T20:28:15.848Z,8.73
2023-04-20T20:30:45.208Z,8.73
2023-04-20T20:33:13.188Z,8.63
2023-04-20T20:35:41.663Z,9.73
2023-04-20T20:38:10.900Z,9.33
2023-04-20T20:40:39.722Z,9.80
2023-04-20T20:43:07.487Z,9.00
2023-04-20T20:45:35.266Z,9.33
2023-04-20T20:48:03.069Z,9.60
2023-04-20T20:50:30.969Z,8.73
2023-04-20T20:52:58.664Z,9.50
2023-04-20T20:55:28.245Z,8.77
2023-04-20T20:57:55.949Z,10.80
2023-04-20T21:00:23.775Z,9.83
2023-04-20T21:02:52.438Z,10.13
2023-04-20T21:05:22.896Z,7.47
2023-04-20T21:07:50.816Z,10.27
2023-04-20T21:10:18.536Z,11.20
2023-04-20T21:12:47.639Z,8.30
2023-04-20T21:15:15.332Z,11.77
2023-04-20T21:17:43.097Z,10.73
2023-04-20T21:20:12.056Z,10.37
2023-04-20T21:22:40.123Z,7.37
2023-04-20T21:25:08.762Z,11.23
2023-04-20T21:27:36.539Z,10.83
2023-04-20T21:30:06.327Z,11.23
2023-04-20T21:32:33.996Z,11.90
2023-04-20T21:35:01.670Z,11.77
2023-04-20T21:37:29.376Z,11.40
2023-04-20T21:39:57.100Z,12.13
2023-04-20T21:42:24.840Z,11.07
2023-04-20T21:44:52.566Z,11.00
2023-04-20T21:47:21.644Z,11.83
2023-04-20T21:49:49.542Z,11.60
2023-04-20T21:52:17.288Z,12.47
2023-04-20T21:54:45.105Z,11.17
2023-04-20T21:57:13.219Z,12.23
2023-04-20T21:59:40.872Z,11.03
2023-04-20T22:02:08.617Z,11.30
2023-04-20T22:04:38.015Z,12.17
2023-04-20T22:07:05.760Z,11.57
2023-04-20T22:09:33.471Z,10.97
2023-04-20T22:12:02.041Z,9.90
2023-04-20T22:14:30.022Z,12.27
2023-04-20T22:16:57.766Z,13.07
2023-04-20T22:19:25.898Z,11.97
2023-04-20T22:21:55.172Z,13.07
2023-04-20T22:24:22.868Z,12.43
2023-04-20T22:26:50.536Z,12.27
2023-04-20T22:29:18.472Z,12.57
2023-04-20T22:31:46.399Z,13.23
2023-04-20T22:34:14.106Z,12.53
2023-04-20T22:36:41.859Z,12.20
2023-04-20T22:39:11.295Z,13.50
2023-04-20T22:41:39.000Z,12.40
2023-04-20T22:44:06.844Z,13.80
2023-04-20T22:46:34.652Z,13.10
2023-04-20T22:49:02.394Z,13.00
2023-04-20T22:51:30.054Z,14.53
2023-04-20T22:53:57.848Z,13.37
2023-04-20T22:56:29.109Z,13.80
2023-04-20T22:58:56.809Z,13.73
2023-04-20T23:01:24.571Z,13.87
2023-04-20T23:03:52.439Z,11.20
2023-04-20T23:06:22.100Z,11.07
2023-04-20T23:08:49.877Z,12.77
2023-04-20T23:11:17.598Z,12.93
2023-04-20T23:13:47.770Z,11.10
2023-04-20T23:16:15.607Z,12.23
2023-04-20T23:18:43.459Z,11.93
2023-04-20T23:21:11.217Z,10.70
2023-04-20T23:23:39.062Z,13.47
2023-04-20T23:26:06.785Z,14.43
2023-04-20T23:28:34.608Z,14.87
2023-04-20T23:31:03.745Z,14.27
2023-04-20T23:33:31.537Z,11.07
2023-04-20T23:35:59.593Z,15.40
2023-04-20T23:38:27.359Z,16.97
2023-04-20T23:40:55.074Z,18.10
2023-04-20T23:43:22.804Z,13.47
2023-04-20T23:45:50.703Z,12.93
2023-04-20T23:48:19.871Z,17.70
2023-04-20T23:50:49.560Z,21.07
2023-04-20T23:53:17.286Z,18.53
2023-04-20T23:55:48.417Z,16.10
2023-04-20T23:58:16.165Z,16.70
